Time;durP1;ratioP1;P1;durP2;ratioP2;P2;SDS_P1;SDS_P2;PMS_P1;PMS_P2;Temp;Humidity;BMP_temperature;BMP_pressure;BME280_temperature;BME280_humidity;BME280_pressure;Samples;Min_cycle;Max_cycle;Signal;HPM_P1;HPM_P2
2024/01/14 00:00:09;;;;;;;;;;;;;;;3.88;100.00;101649.66;5026059;28;20374;-74
2024/01/14 00:02:35;;;;;;;;;;;;;;;3.89;100.00;101638.41;5030192;28;20004;-74
2024/01/14 00:05:00;;;;;;;;;;;;;;;3.85;100.00;101637.53;5028391;28;20216;-74
2024/01/14 00:07:25;;;;;;;;;;;;;;;3.81;100.00;101629.78;5026494;28;19967;-74
2024/01/14 00:09:51;;;;;;;;;;;;;;;3.84;100.00;101622.03;5029572;28;19917;-74
2024/01/14 00:12:16;;;;;;;;;;;;;;;3.78;100.00;101620.31;5026027;28;19976;-74
2024/01/14 00:14:41;;;;;;;;;;;;;;;3.82;100.00;101609.06;5026837;28;19924;-74
2024/01/14 00:17:07;;;;;;;;;;;;;;;3.87;100.00;101614.22;5026602;28;19976;-74
2024/01/14 00:19:32;;;;;;;;;;;;;;;3.78;100.00;101614.22;5031681;28;19922;-74
2024/01/14 00:21:57;;;;;;;;;;;;;;;3.78;100.00;101607.34;5027890;28;19948;-74
2024/01/14 00:24:22;;;;;;;;;;;;;;;3.80;100.00;101597.84;5024571;28;20146;-74
2024/01/14 00:26:48;;;;;;;;;;;;;;;3.81;100.00;101603.88;5028311;28;20003;-74
2024/01/14 00:29:13;;;;;;;;;;;;;;;3.78;100.00;101598.69;5028991;28;19917;-74
2024/01/14 00:31:38;;;;;;;;;;;;;;;3.84;100.00;101598.72;5026590;28;19918;-74
2024/01/14 00:34:04;;;;;;;;;;;;;;;3.83;100.00;101604.75;5029654;28;19917;-74
2024/01/14 00:36:29;;;;;;;;;;;;;;;3.83;100.00;101600.41;5026564;28;19917;-74
2024/01/14 00:38:54;;;;;;;;;;;;;;;3.90;100.00;101603.00;5025599;28;20152;-74
2024/01/14 00:41:20;;;;;;;;;;;;;;;3.94;100.00;101592.63;5027154;28;19917;-74
2024/01/14 00:43:45;;;;;;;;;;;;;;;3.86;100.00;101591.78;5026517;28;19993;-74
2024/01/14 00:46:11;;;;;;;;;;;;;;;3.83;100.00;101582.28;5028691;28;19955;-74
2024/01/14 00:48:37;;;;;;;;;;;;;;;3.85;100.00;101583.13;5036539;28;19980;-74
2024/01/14 00:51:02;;;;;;;;;;;;;;;3.87;100.00;101569.31;5036443;28;19917;-74
2024/01/14 00:53:27;;;;;;;;;;;;;;;3.89;100.00;101572.78;5036451;28;20031;-74
2024/01/14 00:55:52;;;;;;;;;;;;;;;3.85;100.00;101574.50;5035462;28;19924;-74
2024/01/14 00:58:18;;;;;;;;;;;;;;;3.87;100.00;101565.00;5035940;28;20346;-74
2024/01/14 01:00:43;;;;;;;;;;;;;;;3.90;100.00;101569.31;5035031;28;19924;-74
2024/01/14 01:03:08;;;;;;;;;;;;;;;3.90;100.00;101554.63;5036097;28;19913;-74
2024/01/14 01:05:34;;;;;;;;;;;;;;;3.81;100.00;101557.25;5036449;28;20312;-74
2024/01/14 01:08:00;;;;;;;;;;;;;;;3.81;100.00;101559.81;5036211;28;20099;-74
2024/01/14 01:10:25;;;;;;;;;;;;;;;3.77;100.00;101555.53;5036385;28;20104;-74
2024/01/14 01:12:50;;;;;;;;;;;;;;;3.82;100.00;101557.25;5018796;28;19917;-74
2024/01/14 01:15:15;;;;;;;;;;;;;;;3.88;100.00;101550.34;5035101;28;20208;-74
2024/01/14 01:17:41;;;;;;;;;;;;;;;3.90;100.00;101544.28;5034853;28;19920;-74
2024/01/14 01:20:08;;;;;;;;;;;;;;;3.92;100.00;101539.09;5035251;28;19982;-74
2024/01/14 01:22:33;;;;;;;;;;;;;;;3.88;100.00;101540.81;5034957;28;19917;-74
2024/01/14 01:24:58;;;;;;;;;;;;;;;3.88;100.00;101527.88;5036020;28;19939;-74
2024/01/14 01:27:24;;;;;;;;;;;;;;;3.82;100.00;101525.25;5034863;28;19944;-74
2024/01/14 01:29:49;;;;;;;;;;;;;;;3.82;100.00;101520.06;5035573;28;19923;-74
2024/01/14 01:32:15;;;;;;;;;;;;;;;3.87;100.00;101520.09;5034954;28;19995;-74
2024/01/14 01:34:40;;;;;;;;;;;;;;;3.81;100.00;101519.22;5035586;28;19963;-74
2024/01/14 01:37:05;;;;;;;;;;;;;;;3.81;100.00;101514.03;5026391;28;19921;-74
2024/01/14 01:39:31;;;;;;;;;;;;;;;3.81;100.00;101521.81;5026704;28;19921;-74
2024/01/14 01:41:56;;;;;;;;;;;;;;;3.83;100.00;101519.22;5034325;28;19916;-74
2024/01/14 01:44:22;;;;;;;;;;;;;;;3.85;100.00;101512.31;5035432;28;19916;-74
2024/01/14 01:46:48;;;;;;;;;;;;;;;3.85;100.00;101517.50;5034856;28;19923;-74
2024/01/14 01:49:14;;;;;;;;;;;;;;;3.84;100.00;101510.59;5023753;28;19940;-74
2024/01/14 01:51:40;;;;;;;;;;;;;;;3.79;100.00;101505.41;5035022;28;19909;-74
2024/01/14 01:54:07;;;;;;;;;;;;;;;3.71;100.00;101503.69;5034287;28;19917;-74
2024/01/14 01:56:32;;;;;;;;;;;;;;;3.68;100.00;101499.41;5035342;28;19951;-74
2024/01/14 01:58:58;;;;;;;;;;;;;;;3.71;100.00;101496.81;5034448;28;19925;-74
2024/01/14 02:01:23;;;;;;;;;;;;;;;3.69;100.00;101498.50;5035308;28;19920;-74
2024/01/14 02:03:50;;;;;;;;;;;;;;;3.71;100.00;101495.94;5032953;28;19917;-74
2024/01/14 02:06:15;;;;;;;;;;;;;;;3.67;100.00;101496.81;5035081;28;19935;-74
2024/01/14 02:08:41;;;;;;;;;;;;;;;3.63;100.00;101491.63;5025485;28;19917;-74
2024/01/14 02:11:06;;;;;;;;;;;;;;;3.63;100.00;101483.84;5034835;28;19913;-74
2024/01/14 02:13:31;;;;;;;;;;;;;;;3.64;100.00;101489.91;5034523;28;20124;-74
2024/01/14 02:15:56;;;;;;;;;;;;;;;3.68;100.00;101493.38;5034305;28;19913;-74
2024/01/14 02:18:22;;;;;;;;;;;;;;;3.67;100.00;101489.88;5034138;28;19921;-74
2024/01/14 02:20:47;;;;;;;;;;;;;;;3.68;100.00;101489.03;5034862;28;19913;-74
2024/01/14 02:23:16;;;;;;;;;;;;;;;3.73;100.00;101487.31;5032511;28;19909;-74
2024/01/14 02:25:41;;;;;;;;;;;;;;;3.73;100.00;101487.31;5033547;28;19917;-74
2024/01/14 02:28:07;;;;;;;;;;;;;;;3.71;100.00;101486.44;5034112;28;20201;-74
2024/01/14 02:30:33;;;;;;;;;;;;;;;3.73;100.00;101487.31;5034465;28;19923;-74
2024/01/14 02:32:58;;;;;;;;;;;;;;;3.71;100.00;101482.97;5034438;28;19976;-74
2024/01/14 02:35:24;;;;;;;;;;;;;;;3.73;100.00;101474.34;5034486;28;19916;-74
2024/01/14 02:37:49;;;;;;;;;;;;;;;3.74;100.00;101475.19;5034482;28;19991;-74
2024/01/14 02:40:16;;;;;;;;;;;;;;;3.75;100.00;101476.94;5034431;28;19923;-74
2024/01/14 02:42:41;;;;;;;;;;;;;;;3.74;100.00;101468.28;5034660;28;20144;-74
2024/01/14 02:45:07;;;;;;;;;;;;;;;3.69;100.00;101463.97;5035589;28;19948;-74
2024/01/14 02:47:32;;;;;;;;;;;;;;;3.75;100.00;101451.88;5034184;28;19924;-74
2024/01/14 02:49:57;;;;;;;;;;;;;;;3.68;100.00;101457.09;5034091;28;19917;-74
2024/01/14 02:52:22;;;;;;;;;;;;;;;3.75;100.00;101454.47;5034450;28;19923;-74
2024/01/14 02:54:48;;;;;;;;;;;;;;;3.73;100.00;101451.03;5035395;28;19909;-74
2024/01/14 02:57:13;;;;;;;;;;;;;;;3.61;100.00;101443.28;5034170;28;20124;-74
2024/01/14 02:59:38;;;;;;;;;;;;;;;3.54;100.00;101442.44;5033467;28;19921;-74
2024/01/14 03:02:04;;;;;;;;;;;;;;;3.59;100.00;101437.25;5034038;28;19911;-74
2024/01/14 03:04:29;;;;;;;;;;;;;;;3.58;100.00;101438.94;5033712;28;20129;-74
2024/01/14 03:06:54;;;;;;;;;;;;;;;3.61;100.00;101432.91;5033971;28;20213;-74
2024/01/14 03:09:19;;;;;;;;;;;;;;;3.58;100.00;101426.00;5034025;28;19909;-74
2024/01/14 03:11:45;;;;;;;;;;;;;;;3.57;100.00;101426.88;5033932;28;20144;-74
2024/01/14 03:14:10;;;;;;;;;;;;;;;3.50;100.00;101429.50;5034025;28;20208;-74
2024/01/14 03:16:35;;;;;;;;;;;;;;;3.54;100.00;101421.69;5016899;28;20191;-74
2024/01/14 03:19:00;;;;;;;;;;;;;;;3.53;100.00;101420.00;5016649;28;20270;-74
2024/01/14 03:21:25;;;;;;;;;;;;;;;3.54;100.00;101424.28;5037588;28;19921;-74
2024/01/14 03:23:51;;;;;;;;;;;;;;;3.59;100.00;101421.72;5037748;28;19935;-74
2024/01/14 03:26:16;;;;;;;;;;;;;;;3.45;100.00;101420.00;5037703;28;19917;-74
2024/01/14 03:28:41;;;;;;;;;;;;;;;3.40;100.00;101419.16;5036002;28;19954;-74
2024/01/14 03:31:09;;;;;;;;;;;;;;;3.35;100.00;101418.31;5031390;28;19917;-74
2024/01/14 03:33:34;;;;;;;;;;;;;;;3.23;100.00;101413.13;5029587;28;19927;-72
2024/01/14 03:36:00;;;;;;;;;;;;;;;3.29;100.00;101415.69;5037133;28;19949;-72
2024/01/14 03:38:25;;;;;;;;;;;;;;;3.32;100.00;101413.13;5022071;28;19928;-72
2024/01/14 03:40:50;;;;;;;;;;;;;;;3.26;100.00;101403.63;5031804;28;20301;-72
2024/01/14 03:43:16;;;;;;;;;;;;;;;3.31;100.00;101392.41;5037770;28;19913;-72
2024/01/14 03:45:41;;;;;;;;;;;;;;;3.32;100.00;101397.59;5037486;28;19924;-73
2024/01/14 03:48:06;;;;;;;;;;;;;;;3.34;100.00;101392.41;5036811;28;19988;-73
2024/01/14 03:50:32;;;;;;;;;;;;;;;3.36;100.00;101391.53;5037644;28;19944;-72
2024/01/14 03:52:57;;;;;;;;;;;;;;;3.40;100.00;101382.91;5036666;28;20407;-73
2024/01/14 03:55:22;;;;;;;;;;;;;;;3.42;100.00;101380.28;5037881;28;19917;-72
2024/01/14 03:57:48;;;;;;;;;;;;;;;3.41;100.00;101381.19;5023235;28;19917;-72
2024/01/14 04:00:13;;;;;;;;;;;;;;;3.37;100.00;101375.16;5026070;28;19917;-72
2024/01/14 04:02:39;;;;;;;;;;;;;;;3.36;100.00;101370.81;5036236;28;19944;-72
2024/01/14 04:05:04;;;;;;;;;;;;;;;3.33;100.00;101378.59;5044262;28;20199;-72
2024/01/14 04:07:29;;;;;;;;;;;;;;;3.32;100.00;101379.47;5048194;28;20210;-72
2024/01/14 04:09:55;;;;;;;;;;;;;;;3.33;100.00;101372.53;5036899;28;19918;-72
2024/01/14 04:12:20;;;;;;;;;;;;;;;3.30;100.00;101375.16;5036937;28;19917;-72
2024/01/14 04:14:45;;;;;;;;;;;;;;;3.31;100.00;101371.69;5037772;28;20196;-72
2024/01/14 04:17:11;;;;;;;;;;;;;;;3.31;100.00;101362.22;5036217;28;19979;-73
2024/01/14 04:19:37;;;;;;;;;;;;;;;3.35;100.00;101360.50;5035312;28;19920;-72
2024/01/14 04:22:03;;;;;;;;;;;;;;;3.35;100.00;101357.91;5028094;28;20220;-73
2024/01/14 04:24:28;;;;;;;;;;;;;;;3.32;100.00;101350.13;5018578;28;19912;-72
2024/01/14 04:26:53;;;;;;;;;;;;;;;3.26;100.00;101346.69;5036657;28;20090;-72
2024/01/14 04:29:18;;;;;;;;;;;;;;;3.29;100.00;101350.97;5035735;28;20081;-72
2024/01/14 04:31:44;;;;;;;;;;;;;;;3.30;100.00;101336.34;5036427;28;19920;-72
2024/01/14 04:34:09;;;;;;;;;;;;;;;3.31;100.00;101336.34;5020240;28;19939;-72
2024/01/14 04:36:34;;;;;;;;;;;;;;;3.30;100.00;101344.94;5034810;28;19917;-72
2024/01/14 04:38:59;;;;;;;;;;;;;;;3.32;100.00;101337.19;5035909;28;19967;-72
2024/01/14 04:41:25;;;;;;;;;;;;;;;3.24;100.00;101332.03;5034134;28;19928;-73
2024/01/14 04:43:50;;;;;;;;;;;;;;;3.20;100.00;101326.00;5016500;28;19917;-72
2024/01/14 04:46:15;;;;;;;;;;;;;;;3.16;100.00;101328.59;5031256;28;19923;-72
2024/01/14 04:48:40;;;;;;;;;;;;;;;3.13;100.00;101320.81;5028955;28;19980;-72
2024/01/14 04:51:06;;;;;;;;;;;;;;;3.15;100.00;101326.88;5029519;28;19917;-72
2024/01/14 04:53:32;;;;;;;;;;;;;;;3.17;100.00;101327.72;5035964;28;19927;-72
2024/01/14 04:55:57;;;;;;;;;;;;;;;3.19;100.00;101320.81;5030996;28;19988;-72
2024/01/14 04:58:22;;;;;;;;;;;;;;;3.17;100.00;101320.81;5016671;28;20263;-72
2024/01/14 05:00:47;;;;;;;;;;;;;;;3.21;100.00;101317.34;5026332;28;19955;-72
2024/01/14 05:03:13;;;;;;;;;;;;;;;3.19;100.00;101315.66;5035444;28;19917;-72
2024/01/14 05:05:39;;;;;;;;;;;;;;;3.20;100.00;101319.94;5025515;28;19952;-72
2024/01/14 05:08:04;;;;;;;;;;;;;;;3.22;100.00;101310.44;5035977;28;20192;-72
2024/01/14 05:10:29;;;;;;;;;;;;;;;3.26;100.00;101302.69;5035852;28;20128;-72
2024/01/14 05:12:54;;;;;;;;;;;;;;;3.18;100.00;101307.00;5036062;28;20273;-72
2024/01/14 05:15:20;;;;;;;;;;;;;;;3.26;100.00;101304.41;5027489;28;19921;-72
2024/01/14 05:17:45;;;;;;;;;;;;;;;3.24;100.00;101308.75;5035428;28;20254;-72
2024/01/14 05:20:10;;;;;;;;;;;;;;;3.20;100.00;101302.72;5028113;28;20050;-72
2024/01/14 05:22:35;;;;;;;;;;;;;;;3.19;100.00;101295.78;5035714;28;19917;-72
2024/01/14 05:25:01;;;;;;;;;;;;;;;3.18;100.00;101295.78;5033593;28;19944;-72
2024/01/14 05:27:26;;;;;;;;;;;;;;;3.17;100.00;101289.75;5035816;28;20004;-72
2024/01/14 05:29:51;;;;;;;;;;;;;;;3.21;100.00;101296.66;5034732;28;20177;-72
2024/01/14 05:32:17;;;;;;;;;;;;;;;3.20;100.00;101288.88;5035719;28;20139;-73
2024/01/14 05:34:42;;;;;;;;;;;;;;;3.23;100.00;101275.94;5034175;28;19917;-72
2024/01/14 05:37:08;;;;;;;;;;;;;;;3.24;100.00;101278.53;5018176;28;19918;-73
2024/01/14 05:39:34;;;;;;;;;;;;;;;3.26;100.00;101281.97;5017996;28;19984;-72
2024/01/14 05:41:59;;;;;;;;;;;;;;;3.30;100.00;101276.78;5032279;28;19955;-72
2024/01/14 05:44:25;;;;;;;;;;;;;;;3.24;100.00;101273.34;5035629;28;19986;-72
2024/01/14 05:46:50;;;;;;;;;;;;;;;3.26;100.00;101270.75;5034350;28;20121;-72
2024/01/14 05:49:16;;;;;;;;;;;;;;;3.29;100.00;101273.31;5034565;28;19917;-72
2024/01/14 05:51:41;;;;;;;;;;;;;;;3.29;100.00;101269.88;5034034;28;20227;-72
2024/01/14 05:54:06;;;;;;;;;;;;;;;3.29;100.00;101262.09;5035342;28;19913;-72
2024/01/14 05:56:32;;;;;;;;;;;;;;;3.27;100.00;101259.53;5035090;28;19917;-72
2024/01/14 05:58:57;;;;;;;;;;;;;;;3.30;100.00;101256.06;5030437;28;20232;-72
2024/01/14 06:01:22;;;;;;;;;;;;;;;3.29;100.00;101255.19;5036191;28;20093;-72
2024/01/14 06:03:47;;;;;;;;;;;;;;;3.26;100.00;101258.66;5053579;28;20517;-72
2024/01/14 06:06:13;;;;;;;;;;;;;;;3.21;100.00;101252.63;5044409;28;20351;-72
2024/01/14 06:08:40;;;;;;;;;;;;;;;3.21;100.00;101255.22;5034997;28;20208;-72
2024/01/14 06:11:05;;;;;;;;;;;;;;;3.19;100.00;101246.63;5034080;28;19939;-72
2024/01/14 06:13:30;;;;;;;;;;;;;;;3.16;100.00;101241.44;5035247;28;20201;-72
2024/01/14 06:15:56;;;;;;;;;;;;;;;3.21;100.00;101242.28;5031587;28;20142;-72
2024/01/14 06:18:21;;;;;;;;;;;;;;;3.27;100.00;101228.47;5048106;28;20289;-72
2024/01/14 06:20:46;;;;;;;;;;;;;;;3.27;100.00;101236.22;5034715;28;19928;-72
2024/01/14 06:23:12;;;;;;;;;;;;;;;3.30;100.00;101231.03;5020422;28;20263;-72
2024/01/14 06:25:37;;;;;;;;;;;;;;;3.30;100.00;101235.38;5034670;28;19980;-72
2024/01/14 06:28:02;;;;;;;;;;;;;;;3.29;100.00;101218.09;5033090;28;19917;-72
2024/01/14 06:30:28;;;;;;;;;;;;;;;3.28;100.00;101218.97;5026061;28;19939;-72
2024/01/14 06:32:54;;;;;;;;;;;;;;;3.25;100.00;101209.50;5025550;28;19917;-72
2024/01/14 06:35:19;;;;;;;;;;;;;;;3.22;100.00;101212.97;5025352;28;20008;-72
2024/01/14 06:37:44;;;;;;;;;;;;;;;3.18;100.00;101207.78;5036891;28;20001;-72
2024/01/14 06:40:10;;;;;;;;;;;;;;;3.12;100.00;101193.16;5027886;28;19924;-72
2024/01/14 06:42:35;;;;;;;;;;;;;;;3.18;100.00;101206.06;5032491;28;19917;-72
2024/01/14 06:45:00;;;;;;;;;;;;;;;3.20;100.00;101201.75;5030675;28;19952;-72
2024/01/14 06:47:26;;;;;;;;;;;;;;;3.19;100.00;101197.44;5033562;28;19916;-72
2024/01/14 06:49:52;;;;;;;;;;;;;;;3.22;100.00;101194.84;5033100;28;19924;-72
2024/01/14 06:52:22;;;;;;;;;;;;;;;3.24;100.00;101200.88;5033230;28;19971;-73
2024/01/14 06:54:47;;;;;;;;;;;;;;;3.18;100.00;101187.94;5033021;28;19913;-72
2024/01/14 06:57:12;;;;;;;;;;;;;;;3.20;100.00;101199.16;5032138;28;20003;-72
2024/01/14 06:59:42;;;;;;;;;;;;;;;3.15;100.00;101200.91;5033959;28;19984;-72
2024/01/14 07:02:07;;;;;;;;;;;;;;;3.15;100.00;101195.75;5033078;28;20284;-72
2024/01/14 07:04:32;;;;;;;;;;;;;;;3.14;100.00;101186.25;5023620;28;19917;-72
2024/01/14 07:06:57;;;;;;;;;;;;;;;3.15;100.00;101187.97;5029797;28;19979;-73
2024/01/14 07:09:23;;;;;;;;;;;;;;;3.20;100.00;101191.41;5031406;28;20124;-72
2024/01/14 07:11:48;;;;;;;;;;;;;;;3.19;100.00;101194.00;5033756;28;19921;-72
2024/01/14 07:14:13;;;;;;;;;;;;;;;3.20;100.00;101198.28;5029207;28;19917;-72
2024/01/14 07:16:38;;;;;;;;;;;;;;;3.23;100.00;101193.97;5027192;28;20136;-72
2024/01/14 07:19:04;;;;;;;;;;;;;;;3.28;100.00;101195.69;5019636;28;20220;-73
2024/01/14 07:21:31;;;;;;;;;;;;;;;3.27;100.00;101189.63;5035290;28;20278;-72
2024/01/14 07:23:56;;;;;;;;;;;;;;;3.22;100.00;101193.97;5026124;28;19921;-73
2024/01/14 07:26:21;;;;;;;;;;;;;;;3.23;100.00;101199.13;5027245;28;20286;-73
2024/01/14 07:28:46;;;;;;;;;;;;;;;3.22;100.00;101197.44;5033311;28;19997;-72
2024/01/14 07:31:16;;;;;;;;;;;;;;;3.28;100.00;101203.44;5030740;28;19923;-73
2024/01/14 07:33:41;;;;;;;;;;;;;;;3.28;100.00;101203.44;5021680;28;19924;-72
2024/01/14 07:36:06;;;;;;;;;;;;;;;3.27;100.00;101199.97;5025233;28;19916;-75
2024/01/14 07:38:32;;;;;;;;;;;;;;;3.22;100.00;101192.25;5033366;28;20094;-76
2024/01/14 07:40:57;;;;;;;;;;;;;;;3.16;100.00;101194.84;5033791;28;19913;-76
2024/01/14 07:43:22;;;;;;;;;;;;;;;3.17;100.00;101198.31;5033716;28;19951;-76
2024/01/14 07:45:49;;;;;;;;;;;;;;;3.19;100.00;101199.16;5014467;28;19980;-76
2024/01/14 07:48:14;;;;;;;;;;;;;;;3.19;100.00;101196.59;5033098;28;19920;-76
2024/01/14 07:50:40;;;;;;;;;;;;;;;3.18;100.00;101193.13;5016162;28;19948;-76
2024/01/14 07:53:05;;;;;;;;;;;;;;;3.19;100.00;101194.00;5016445;28;20349;-76
2024/01/14 07:55:30;;;;;;;;;;;;;;;3.17;100.00;101194.00;5015611;28;19937;-76
2024/01/14 07:57:57;;;;;;;;;;;;;;;3.14;100.00;101185.38;5030296;28;19951;-76
2024/01/14 08:00:22;;;;;;;;;;;;;;;3.08;100.00;101183.69;5033550;28;20120;-76
2024/01/14 08:02:47;;;;;;;;;;;;;;;3.09;100.00;101198.31;5032338;28;19917;-76
2024/01/14 08:05:12;;;;;;;;;;;;;;;3.11;100.00;101198.31;5027673;28;19952;-76
2024/01/14 08:07:37;;;;;;;;;;;;;;;3.15;100.00;101200.91;5037300;28;19916;-76
2024/01/14 08:10:03;;;;;;;;;;;;;;;3.12;100.00;101205.25;5036385;28;19917;-76
2024/01/14 08:12:28;;;;;;;;;;;;;;;3.12;100.00;101200.91;5027131;28;19924;-76
2024/01/14 08:14:53;;;;;;;;;;;;;;;3.11;100.00;101191.44;5017141;28;20216;-76
2024/01/14 08:17:19;;;;;;;;;;;;;;;3.10;100.00;101181.94;5028590;28;20178;-76
2024/01/14 08:19:45;;;;;;;;;;;;;;;3.16;100.00;101184.50;5036300;28;20132;-76
2024/01/14 08:22:10;;;;;;;;;;;;;;;3.08;100.00;101176.78;5037017;28;20047;-76
2024/01/14 08:24:36;;;;;;;;;;;;;;;3.10;100.00;101181.94;5036678;28;19923;-76
2024/01/14 08:27:01;;;;;;;;;;;;;;;3.11;100.00;101177.63;5034530;28;19908;-76
2024/01/14 08:29:26;;;;;;;;;;;;;;;3.11;100.00;101178.50;5017107;28;19992;-76
2024/01/14 08:31:51;;;;;;;;;;;;;;;3.15;100.00;101181.94;5032531;28;19963;-76
2024/01/14 08:34:17;;;;;;;;;;;;;;;3.20;100.00;101180.16;5036595;28;19987;-76
2024/01/14 08:36:42;;;;;;;;;;;;;;;3.18;100.00;101182.75;5036158;28;19952;-76
2024/01/14 08:39:07;;;;;;;;;;;;;;;3.15;100.00;101187.97;5035966;28;19920;-76
2024/01/14 08:41:32;;;;;;;;;;;;;;;3.25;100.00;101187.03;5035244;28;19924;-76
2024/01/14 08:43:59;;;;;;;;;;;;;;;3.23;100.00;101186.19;5036008;28;19913;-76
2024/01/14 08:46:25;;;;;;;;;;;;;;;3.25;100.00;101174.09;5032369;28;20423;-76
2024/01/14 08:48:50;;;;;;;;;;;;;;;3.27;100.00;101168.91;5029841;28;20251;-76
2024/01/14 08:51:15;;;;;;;;;;;;;;;3.29;100.00;101166.31;5034834;28;20458;-76
2024/01/14 08:53:40;;;;;;;;;;;;;;;3.25;100.00;101168.06;5035062;28;20197;-76
2024/01/14 08:56:05;;;;;;;;;;;;;;;3.34;100.00;101162.84;5035274;28;19920;-75
2024/01/14 08:58:31;;;;;;;;;;;;;;;3.39;100.00;101155.06;5035333;28;19921;-75
2024/01/14 09:00:56;;;;;;;;;;;;;;;3.36;100.00;101149.88;5034951;28;19913;-75
2024/01/14 09:03:21;;;;;;;;;;;;;;;3.38;100.00;101154.19;5035501;28;20149;-75
2024/01/14 09:05:46;;;;;;;;;;;;;;;3.34;100.00;101147.31;5027341;28;19925;-75
2024/01/14 09:08:15;;;;;;;;;;;;;;;3.38;100.00;101140.38;5034434;28;19916;-75
2024/01/14 09:10:40;;;;;;;;;;;;;;;3.39;100.00;101142.97;5025893;28;19913;-75
2024/01/14 09:13:05;;;;;;;;;;;;;;;3.38;100.00;101138.66;5030730;28;19963;-75
2024/01/14 09:15:31;;;;;;;;;;;;;;;3.43;100.00;101139.47;5026716;28;20268;-75
2024/01/14 09:17:56;;;;;;;;;;;;;;;3.40;100.00;101143.81;5025109;28;19917;-75
2024/01/14 09:20:21;;;;;;;;;;;;;;;3.44;100.00;101140.38;5026867;28;19921;-75
2024/01/14 09:22:46;;;;;;;;;;;;;;;3.43;100.00;101138.63;5031235;28;19916;-75
2024/01/14 09:25:12;;;;;;;;;;;;;;;3.49;100.00;101141.16;5045402;28;19917;-75
2024/01/14 09:27:37;;;;;;;;;;;;;;;3.49;100.00;101138.56;5025050;28;19928;-75
2024/01/14 09:30:02;;;;;;;;;;;;;;;3.53;100.00;101135.13;5029505;28;19916;-75
2024/01/14 09:32:28;;;;;;;;;;;;;;;3.43;100.00;101141.22;5021783;28;21638;-75
2024/01/14 09:34:54;;;;;;;;;;;;;;;3.45;100.00;101142.91;5039455;28;19988;-75
2024/01/14 09:37:19;;;;;;;;;;;;;;;3.43;100.00;101134.31;5044724;28;20170;-75
2024/01/14 09:39:44;;;;;;;;;;;;;;;3.41;100.00;101136.03;5045742;28;19924;-75
2024/01/14 09:42:22;;;;;;;;;;;;;;;3.42;100.00;101130.00;5043192;28;19916;-75
2024/01/14 09:44:48;;;;;;;;;;;;;;;3.43;100.00;101130.84;5044372;28;19942;-75
2024/01/14 09:47:14;;;;;;;;;;;;;;;3.48;100.00;101131.69;5044343;28;19952;-75
2024/01/14 09:49:41;;;;;;;;;;;;;;;3.51;100.00;101135.97;5035634;28;19940;-75
2024/01/14 09:52:07;;;;;;;;;;;;;;;3.45;100.00;101127.38;5037414;28;19920;-75
2024/01/14 09:54:32;;;;;;;;;;;;;;;3.43;100.00;101125.69;5034608;28;20135;-75
2024/01/14 09:57:00;;;;;;;;;;;;;;;3.43;100.00;101128.28;5041384;28;19916;-75
2024/01/14 09:59:27;;;;;;;;;;;;;;;3.43;100.00;101126.53;5037860;28;19924;-75
2024/01/14 10:01:53;;;;;;;;;;;;;;;3.41;100.00;101128.28;5036054;28;20653;-75
2024/01/14 10:04:20;;;;;;;;;;;;;;;3.42;100.00;101129.13;5039742;28;20213;-75
2024/01/14 10:06:46;;;;;;;;;;;;;;;3.48;100.00;101131.69;5042240;28;19946;-75
2024/01/14 10:09:11;;;;;;;;;;;;;;;3.39;100.00;101124.84;5034285;28;19951;-75
2024/01/14 10:11:37;;;;;;;;;;;;;;;3.33;100.00;101118.84;5032571;28;19972;-75
2024/01/14 10:14:02;;;;;;;;;;;;;;;3.36;100.00;101114.50;5027752;28;19916;-75
2024/01/14 10:16:28;;;;;;;;;;;;;;;3.37;100.00;101113.63;5032404;28;20265;-75
2024/01/14 10:18:55;;;;;;;;;;;;;;;3.31;100.00;101118.00;5028784;28;19931;-75
2024/01/14 10:21:20;;;;;;;;;;;;;;;3.31;100.00;101113.69;5030125;28;20184;-75
2024/01/14 10:23:45;;;;;;;;;;;;;;;3.34;100.00;101105.03;5028309;28;19920;-75
2024/01/14 10:26:11;;;;;;;;;;;;;;;3.30;100.00;101101.59;5030392;28;20098;-75
2024/01/14 10:28:36;;;;;;;;;;;;;;;3.27;100.00;101104.19;5028931;28;20163;-75
2024/01/14 10:31:02;;;;;;;;;;;;;;;3.25;100.00;101093.00;5029528;28;20000;-75
2024/01/14 10:33:30;;;;;;;;;;;;;;;3.30;100.00;101093.00;5043625;28;19939;-75
2024/01/14 10:35:56;;;;;;;;;;;;;;;3.31;100.00;101092.09;5026558;28;20240;-75
2024/01/14 10:38:22;;;;;;;;;;;;;;;3.30;100.00;101091.25;5022290;28;19921;-75
2024/01/14 10:40:47;;;;;;;;;;;;;;;3.36;100.00;101100.69;5023949;28;19931;-75
2024/01/14 10:43:13;;;;;;;;;;;;;;;3.29;100.00;101099.88;5031188;28;19917;-75
2024/01/14 10:45:38;;;;;;;;;;;;;;;3.29;100.00;101094.69;5020491;28;20165;-75
2024/01/14 10:48:06;;;;;;;;;;;;;;;3.29;100.00;101094.69;5021108;28;20159;-75
2024/01/14 10:50:32;;;;;;;;;;;;;;;3.28;100.00;101086.97;5023476;28;19917;-75
2024/01/14 10:53:00;;;;;;;;;;;;;;;3.23;100.00;101086.97;5020114;28;19917;-75
2024/01/14 10:55:25;;;;;;;;;;;;;;;3.28;100.00;101076.63;5024484;28;20208;-75
2024/01/14 10:57:51;;;;;;;;;;;;;;;3.34;100.00;101068.78;5021337;28;19917;-75
2024/01/14 11:00:18;;;;;;;;;;;;;;;3.40;100.00;101071.31;5021397;28;20189;-75
2024/01/14 11:02:44;;;;;;;;;;;;;;;3.38;100.00;101053.22;5028171;28;19958;-75
2024/01/14 11:05:10;;;;;;;;;;;;;;;3.36;100.00;101044.59;5030524;28;19921;-75
2024/01/14 11:07:36;;;;;;;;;;;;;;;3.39;100.00;101038.56;5031070;28;19917;-75
2024/01/14 11:10:02;;;;;;;;;;;;;;;3.38;100.00;101034.22;5023692;28;19959;-75
2024/01/14 11:12:41;;;;;;;;;;;;;;;3.42;100.00;101034.22;5014877;28;20255;-75
2024/01/14 11:15:13;;;;;;;;;;;;;;;3.45;100.00;101034.16;5027928;28;20212;-75
2024/01/14 11:17:47;;;;;;;;;;;;;;;3.47;100.00;101036.75;5017184;28;19917;-75
2024/01/14 11:20:14;;;;;;;;;;;;;;;3.47;100.00;101031.56;5027196;28;20027;-75
2024/01/14 11:22:39;;;;;;;;;;;;;;;3.43;100.00;101029.88;5031576;28;19935;-75
2024/01/14 11:25:10;;;;;;;;;;;;;;;3.35;100.00;101021.34;5031264;28;19916;-75
2024/01/14 11:27:35;;;;;;;;;;;;;;;3.34;100.00;101010.09;5032074;28;19917;-75
2024/01/14 11:30:00;;;;;;;;;;;;;;;3.39;100.00;101004.91;5030982;28;20235;-75
2024/01/14 11:32:26;;;;;;;;;;;;;;;3.40;100.00;100988.47;5023278;28;20004;-75
2024/01/14 11:34:52;;;;;;;;;;;;;;;3.37;100.00;100989.38;5032172;28;20027;-75
2024/01/14 11:37:29;;;;;;;;;;;;;;;3.41;100.00;100983.28;5029920;28;19938;-75
2024/01/14 11:40:06;;;;;;;;;;;;;;;3.45;100.00;100982.38;5012887;28;20142;-75
2024/01/14 11:42:38;;;;;;;;;;;;;;;3.36;100.00;100986.78;5031667;28;19913;-75
2024/01/14 11:45:12;;;;;;;;;;;;;;;3.31;100.00;100984.25;5031434;28;20075;-75
2024/01/14 11:47:45;;;;;;;;;;;;;;;3.42;100.00;100984.13;5031402;28;19919;-75
2024/01/14 11:50:10;;;;;;;;;;;;;;;3.33;100.00;100977.34;5035011;28;19923;-75
2024/01/14 11:52:36;;;;;;;;;;;;;;;3.36;100.00;100976.44;5022331;28;19913;-75
2024/01/14 11:55:05;;;;;;;;;;;;;;;3.35;100.00;100960.06;5035389;28;19952;-75
2024/01/14 11:57:31;;;;;;;;;;;;;;;3.35;100.00;100954.88;5034704;28;20216;-75
2024/01/14 11:59:57;;;;;;;;;;;;;;;3.37;100.00;100952.28;5044741;28;19920;-75
2024/01/14 12:02:22;;;;;;;;;;;;;;;3.39;100.00;100947.94;5026046;28;20258;-75
2024/01/14 12:04:47;;;;;;;;;;;;;;;3.40;100.00;100937.56;5024684;28;19923;-75
2024/01/14 12:07:18;;;;;;;;;;;;;;;3.45;100.00;100935.78;5024204;28;19948;-75
2024/01/14 12:09:50;;;;;;;;;;;;;;;3.45;100.00;100928.00;5023875;28;19917;-75
2024/01/14 12:12:16;;;;;;;;;;;;;;;3.50;100.00;100927.13;5024355;28;20208;-75
2024/01/14 12:14:41;;;;;;;;;;;;;;;3.53;100.00;100920.19;5035446;28;19948;-75
2024/01/14 12:17:10;;;;;;;;;;;;;;;3.46;100.00;100915.94;5030498;28;19941;-75
2024/01/14 12:19:35;;;;;;;;;;;;;;;3.56;100.00;100909.78;5033762;28;19948;-75
2024/01/14 12:22:01;;;;;;;;;;;;;;;3.61;100.00;100912.31;5032426;28;20252;-76
2024/01/14 12:24:28;;;;;;;;;;;;;;;3.61;100.00;100901.97;5027815;28;19978;-74
2024/01/14 12:26:57;;;;;;;;;;;;;;;3.62;100.00;100907.13;5033774;28;20124;-74